Time;durP1;ratioP1;P1;durP2;ratioP2;P2;SDS_P1;SDS_P2;PMS_P1;PMS_P2;Temp;Humidity;BMP_temperature;BMP_pressure;BME280_temperature;BME280_humidity;BME280_pressure;Samples;Min_cycle;Max_cycle;Signal;HPM_P1;HPM_P2
2023/06/22 00:01:00;;;;;;;15.57;8.23;;;15.40;99.90;;;14.39;96.85;101505.69;4839877;29;20037;-76
2023/06/22 00:03:26;;;;;;;12.63;8.90;;;15.40;99.90;;;14.33;97.82;101506.00;4856545;29;20099;-76
2023/06/22 00:05:52;;;;;;;;;;;15.30;99.90;;;14.25;98.12;101519.63;4849981;29;20037;-76
2023/06/22 00:08:19;;;;;;;14.82;7.60;;;15.20;99.90;;;14.20;98.25;101520.78;4863767;29;19924;-76
2023/06/22 00:10:48;;;;;;;13.40;7.78;;;15.20;99.90;;;14.19;98.36;101522.59;4864077;29;20064;-76
2023/06/22 00:13:17;;;;;;;16.58;8.15;;;15.20;99.90;;;14.19;98.78;101541.13;4847081;29;20033;-75
2023/06/22 00:15:43;;;;;;;12.95;7.90;;;15.20;99.90;;;14.19;99.14;101538.47;4865197;29;20040;-76
2023/06/22 00:18:10;;;;;;;14.30;8.90;;;15.20;99.90;;;14.20;99.39;101539.34;4866448;29;20532;-76
2023/06/22 00:20:37;;;;;;;11.45;7.95;;;15.20;99.90;;;14.20;100.00;101536.69;4879262;29;20149;-76
2023/06/22 00:23:09;;;;;;;11.77;7.70;;;15.20;99.90;;;14.20;100.00;101536.69;4854799;29;20508;-75
2023/06/22 00:25:41;;;;;;;18.10;9.50;;;15.20;99.90;;;14.22;100.00;101537.47;4863220;29;20045;-76
2023/06/22 00:28:10;;;;;;;15.23;9.20;;;15.20;99.90;;;14.18;100.00;101533.25;4872059;29;20049;-76
2023/06/22 00:30:36;;;;;;;15.20;9.30;;;15.10;99.90;;;14.10;100.00;101525.66;4822457;29;20164;-76
2023/06/22 00:33:02;;;;;;;18.92;9.20;;;15.10;99.90;;;14.04;100.00;101526.84;4859563;29;20044;-77
2023/06/22 00:35:30;;;;;;;20.35;10.82;;;15.00;99.90;;;14.00;100.00;101525.28;4859521;29;20388;-76
2023/06/22 00:38:03;;;;;;;17.63;11.07;;;15.00;99.90;;;13.95;100.00;101516.66;4840806;29;20088;-75
2023/06/22 00:40:32;;;;;;;19.70;11.02;;;14.90;99.90;;;13.88;100.00;101515.25;4881960;29;20115;-76
2023/06/22 00:42:59;;;;;;;17.05;9.32;;;14.90;99.90;;;13.80;100.00;101517.41;4870259;29;20414;-76
2023/06/22 00:45:26;;;;;;;12.27;8.65;;;14.80;99.90;;;13.74;100.00;101519.44;4869718;29;20100;-76
2023/06/22 00:47:57;;;;;;;13.80;8.95;;;14.80;99.90;;;13.70;100.00;101520.50;4841931;29;20129;-76
2023/06/22 00:50:28;;;;;;;12.05;8.50;;;14.70;99.90;;;13.67;100.00;101520.66;4876036;29;20217;-76
2023/06/22 00:53:01;;;;;;;15.82;8.77;;;14.70;99.90;;;13.65;100.00;101519.88;4886968;29;20037;-76
2023/06/22 00:55:28;;;;;;;17.90;8.65;;;14.70;99.90;;;13.62;100.00;101527.94;4860837;29;20052;-76
2023/06/22 00:57:56;;;;;;;16.70;9.15;;;14.60;99.90;;;13.61;100.00;101531.53;4875588;29;20079;-76
2023/06/22 01:00:28;;;;;;;17.13;10.15;;;14.60;99.90;;;13.61;100.00;101530.66;4874809;29;20029;-76
2023/06/22 01:02:53;;;;;;;15.65;8.70;;;14.60;99.90;;;13.57;100.00;101527.28;4878183;29;20045;-76
2023/06/22 01:05:21;;;;;;;13.57;7.72;;;14.60;99.90;;;13.57;100.00;101543.16;4848490;29;20044;-76
2023/06/22 01:08:28;;;;;;;11.30;7.20;;;14.60;99.90;;;13.56;100.00;101545.88;4878379;29;20438;-76
2023/06/22 01:11:10;;;;;;;18.58;11.60;;;14.50;99.90;;;13.54;100.00;101544.19;4880595;29;20119;-76
2023/06/22 01:14:03;;;;;;;24.02;13.18;;;14.50;99.90;;;13.52;100.00;101547.81;4874351;29;20033;-76
2023/06/22 01:16:32;;;;;;;30.52;14.77;;;14.50;99.90;;;13.50;100.00;101541.75;4856573;29;20048;-76
2023/06/22 01:19:09;;;;;;;17.48;11.75;;;14.50;99.90;;;13.50;100.00;101547.03;4865632;29;20143;-75
2023/06/22 01:21:36;;;;;;;27.75;15.60;;;14.50;99.90;;;13.50;100.00;101549.69;4864778;29;20025;-76
2023/06/22 01:24:42;;;;;;;31.25;15.52;;;14.50;99.90;;;13.52;100.00;101555.75;4864980;29;20571;-76
2023/06/22 01:27:53;;;;;;;21.08;11.98;;;14.50;99.90;;;13.49;100.00;101558.53;4857671;29;20025;-76
2023/06/22 01:30:20;;;;;;;16.70;9.40;;;14.50;99.90;;;13.45;100.00;101562.25;4867114;29;20124;-76
2023/06/22 01:32:48;;;;;;;27.02;13.77;;;14.40;99.90;;;13.43;100.00;101550.88;4874252;29;20029;-76
2023/06/22 01:35:15;;;;;;;19.45;12.82;;;14.40;99.90;;;13.39;100.00;101552.81;4868733;29;20052;-76
2023/06/22 01:37:41;;;;;;;20.98;10.63;;;14.40;99.90;;;13.40;100.00;101548.38;4850075;29;20072;-76
2023/06/22 01:40:11;;;;;;;27.13;14.70;;;14.40;99.90;;;13.38;100.00;101547.59;4858274;29;21125;-76
2023/06/22 01:42:38;;;;;;;15.02;10.35;;;14.40;99.90;;;13.36;100.00;101549.44;4864738;29;20068;-76
2023/06/22 01:45:07;;;;;;;17.63;10.07;;;14.30;99.90;;;13.31;100.00;101545.22;4876204;29;20111;-76
2023/06/22 01:47:33;;;;;;;14.38;9.25;;;14.30;99.90;;;13.25;100.00;101548.09;4865237;29;20032;-76
2023/06/22 01:49:59;;;;;;;10.15;6.72;;;14.20;99.90;;;13.23;100.00;101557.88;4872097;29;20037;-75
2023/06/22 01:52:27;;;;;;;12.23;6.85;;;14.20;99.90;;;13.19;100.00;101558.09;4872169;29;20092;-75
2023/06/22 01:54:53;;;;;;;9.10;5.22;;;14.20;99.90;;;13.14;100.00;101567.09;4859784;29;20079;-75
2023/06/22 01:57:20;;;;;;;7.13;4.43;;;14.20;99.90;;;13.10;100.00;101559.34;4848297;29;20048;-76
2023/06/22 02:00:04;;;;;;;5.05;3.60;;;14.10;99.90;;;13.05;100.00;101562.22;4864854;29;20679;-76
2023/06/22 02:02:41;;;;;;;7.28;4.10;;;14.10;99.90;;;12.98;100.00;101568.69;4850934;29;20065;-76
2023/06/22 02:05:09;;;;;;;;;;;14.00;99.90;;;12.87;99.56;101561.22;4892530;29;20108;-75
2023/06/22 02:07:46;;;;;;;6.68;3.50;;;13.90;99.90;;;12.79;98.41;101565.97;4851146;29;19931;-76
2023/06/22 02:10:14;;;;;;;;;;;13.90;99.90;;;12.69;97.43;101570.78;4859919;29;20036;-75
2023/06/22 02:12:43;;;;;;;6.72;4.95;;;13.70;99.90;;;12.64;97.92;101554.25;4855413;29;19962;-76
2023/06/22 02:15:12;;;;;;;15.90;8.52;;;13.70;99.90;;;12.66;98.35;101554.22;4879050;29;20028;-75
2023/06/22 02:17:38;;;;;;;9.65;5.80;;;13.70;99.90;;;12.68;99.68;101563.78;4863453;29;20044;-76
2023/06/22 02:20:07;;;;;;;21.55;11.55;;;13.70;99.90;;;12.74;100.00;101562.66;4874883;29;20093;-75
2023/06/22 02:22:33;;;;;;;20.98;12.13;;;13.80;99.90;;;12.81;100.00;101564.13;4859333;29;20044;-75
2023/06/22 02:24:59;;;;;;;22.73;10.75;;;13.80;99.90;;;12.86;100.00;101567.41;4867466;29;20040;-76
2023/06/22 02:27:25;;;;;;;9.77;6.10;;;13.90;99.90;;;12.89;100.00;101567.31;4873354;29;20096;-76
2023/06/22 02:29:51;;;;;;;9.50;5.65;;;13.80;99.90;;;12.89;100.00;101574.34;4872328;29;20040;-75
2023/06/22 02:32:17;;;;;;;8.52;4.40;;;13.90;99.90;;;12.90;100.00;101573.44;4864763;29;20048;-75
2023/06/22 02:34:47;;;;;;;9.05;4.95;;;13.90;99.90;;;12.90;100.00;101587.50;4868207;29;20215;-75
2023/06/22 02:37:17;;;;;;;6.30;4.82;;;13.90;99.90;;;12.90;100.00;101592.81;4847413;29;20049;-75
2023/06/22 02:39:43;;;;;;;23.27;11.00;;;13.80;99.90;;;12.90;100.00;101582.22;4864634;29;20473;-75
2023/06/22 02:42:10;;;;;;;14.82;9.63;;;13.90;99.90;;;12.91;100.00;101591.00;4863474;29;20040;-75
2023/06/22 02:44:37;;;;;;;5.25;4.75;;;13.90;99.90;;;12.89;100.00;101588.47;4880092;29;20048;-76
2023/06/22 02:47:03;;;;;;;10.90;6.65;;;13.80;99.90;;;12.88;100.00;101589.38;4879701;29;20044;-75
2023/06/22 02:49:29;;;;;;;27.70;15.73;;;13.90;99.90;;;12.88;100.00;101589.38;4848742;29;20755;-75
2023/06/22 02:51:55;;;;;;;4.82;4.03;;;13.90;99.90;;;12.88;100.00;101589.38;4873473;29;20048;-75
2023/06/22 02:54:20;;;;;;;;;;;13.80;99.90;;;12.87;100.00;101587.66;4859036;29;20033;-75
2023/06/22 02:56:47;;;;;;;12.60;6.20;;;13.80;99.90;;;12.86;100.00;101593.00;4863073;29;19935;-76
2023/06/22 02:59:13;;;;;;;10.35;6.63;;;13.90;99.90;;;12.88;100.00;101593.81;4864345;29;20092;-75
2023/06/22 03:01:39;;;;;;;14.85;7.78;;;13.80;99.90;;;12.87;100.00;101592.94;4851442;29;20047;-74
2023/06/22 03:04:11;;;;;;;16.63;8.27;;;13.80;99.90;;;12.82;99.52;101594.91;4860508;29;20038;-75
2023/06/22 03:06:40;;;;;;;16.75;8.88;;;13.80;99.90;;;12.81;98.97;101585.28;4877586;29;20487;-75
2023/06/22 03:09:06;;;;;;;10.27;6.80;;;13.80;99.90;;;12.81;98.77;101589.72;4862974;29;20045;-75
2023/06/22 03:11:33;;;;;;;15.32;9.80;;;13.80;99.90;;;12.83;98.83;101587.81;4874045;29;20040;-74
2023/06/22 03:14:03;;;;;;;10.50;5.13;;;13.80;99.90;;;12.83;98.56;101594.00;4868346;29;20036;-76
2023/06/22 03:16:29;;;;;;;9.40;5.53;;;13.80;99.90;;;12.85;98.27;101602.72;4868061;29;20036;-75
2023/06/22 03:18:55;;;;;;;6.60;3.55;;;13.80;99.90;;;12.89;97.59;101609.59;4873770;29;20025;-75
2023/06/22 03:21:23;;;;;;;16.67;4.20;;;13.80;99.90;;;12.93;98.57;101605.03;4855665;29;20127;-75
2023/06/22 03:23:49;;;;;;;11.93;4.38;;;13.80;99.90;;;12.96;99.49;101615.47;4872976;29;20612;-75
2023/06/22 03:26:21;;;;;;;6.78;4.40;;;13.90;99.90;;;13.02;100.00;101625.78;4855967;29;20037;-76
2023/06/22 03:28:47;;;;;;;8.60;4.93;;;13.90;99.90;;;13.07;100.00;101622.97;4865861;29;20040;-75
2023/06/22 03:31:13;;;;;;;9.18;6.07;;;14.00;99.90;;;13.11;99.77;101625.41;4866167;29;20067;-76
2023/06/22 03:33:38;;;;;;;11.88;7.28;;;14.00;99.90;;;13.15;99.04;101623.47;4877374;29;20463;-75
2023/06/22 03:36:04;;;;;;;;;;;14.00;99.90;;;13.18;97.54;101625.16;4868030;29;20066;-75
2023/06/22 03:38:32;;;;;;;9.02;4.90;;;14.10;99.90;;;13.23;96.94;101624.00;4872424;29;19960;-75
2023/06/22 03:41:01;;;;;;;10.98;5.93;;;14.20;99.90;;;13.31;95.88;101616.63;4865794;29;20040;-75
2023/06/22 03:43:27;;;;;;;6.70;5.78;;;14.20;99.90;;;13.42;95.33;101617.94;4867351;29;20445;-75
2023/06/22 03:45:52;;;;;;;13.15;5.53;;;14.30;99.90;;;13.51;94.31;101622.81;4854422;29;20104;-75
2023/06/22 03:48:18;;;;;;;13.68;6.63;;;14.40;99.90;;;13.64;93.22;101637.22;4850191;29;20414;-75
2023/06/22 03:50:44;;;;;;;16.23;6.50;;;14.50;99.90;;;13.77;92.78;101631.38;4857731;29;20049;-75
2023/06/22 03:53:17;;;;;;;9.25;6.45;;;14.60;99.90;;;13.97;92.02;101631.31;4855459;29;20053;-77
2023/06/22 03:55:51;;;;;;;27.65;7.20;;;14.80;99.90;;;14.20;91.79;101630.25;4866510;29;20056;-75
2023/06/22 03:58:19;;;;;;;10.20;5.45;;;15.00;99.90;;;14.36;91.38;101633.88;4861949;29;20056;-75
2023/06/22 04:00:51;;;;;;;35.03;5.90;;;15.10;99.90;;;14.59;91.14;101628.44;4873564;29;20037;-75
2023/06/22 04:03:18;;;;;;;38.78;5.72;;;15.40;99.90;;;14.92;91.09;101637.38;4876973;29;20101;-76
2023/06/22 04:05:45;;;;;;;17.08;5.18;;;16.00;99.90;;;15.75;89.60;101640.19;4847838;29;20559;-75
2023/06/22 04:08:12;;;;;;;20.00;4.72;;;17.00;99.90;;;16.99;85.80;101651.81;4875244;29;20044;-75
2023/06/22 04:10:38;;;;;;;22.80;4.75;;;17.70;99.90;;;17.72;81.66;101658.13;4860528;29;20040;-76
2023/06/22 04:13:04;;;;;;;63.35;7.00;;;18.30;99.90;;;18.17;78.50;101662.38;4858125;29;20045;-75
2023/06/22 04:15:29;;;;;;;15.70;6.40;;;18.50;99.90;;;18.17;76.37;101657.06;4858752;29;20033;-75
2023/06/22 04:17:57;;;;;;;14.77;8.27;;;18.50;99.90;;;17.99;75.35;101656.44;4856859;29;20056;-76
2023/06/22 04:20:28;;;;;;;15.02;6.65;;;18.40;99.90;;;17.83;75.33;101656.50;4881985;29;20040;-75
2023/06/22 04:22:54;;;;;;;14.23;7.93;;;18.20;99.90;;;17.50;76.04;101650.59;4848134;29;20048;-76
2023/06/22 04:25:22;;;;;;;20.02;8.73;;;18.10;99.90;;;17.44;76.55;101643.81;4866246;29;20040;-76
2023/06/22 04:27:48;;;;;;;8.63;3.80;;;18.40;99.90;;;18.27;76.71;101657.31;4872790;29;20824;-75
2023/06/22 04:30:17;;;;;;;9.15;4.55;;;19.10;99.90;;;19.42;74.29;101663.03;4857173;29;20044;-76
2023/06/22 04:32:44;;;;;;;12.65;4.45;;;19.90;99.90;;;20.42;71.20;101682.69;4853549;29;20035;-75
2023/06/22 04:35:11;;;;;;;6.65;3.40;;;20.50;99.90;;;20.72;69.20;101683.25;4863838;29;20044;-76
2023/06/22 04:37:39;;;;;;;10.75;3.65;;;21.30;99.90;;;22.30;66.60;101693.31;4865072;29;20110;-74
2023/06/22 04:40:06;;;;;;;16.90;3.63;;;22.60;99.90;;;24.08;62.13;101696.25;4848887;29;20055;-75
2023/06/22 04:42:35;;;;;;;14.68;3.25;;;23.90;99.90;;;25.64;58.47;101696.34;4858340;29;20098;-75
2023/06/22 04:45:01;;;;;;;13.02;4.75;;;25.20;99.90;;;27.07;55.43;101711.22;4865687;29;20486;-76
2023/06/22 04:47:27;;;;;;;15.13;5.15;;;26.50;99.90;;;28.48;52.36;101728.13;4855412;29;20051;-75
2023/06/22 04:49:52;;;;;;;;;;;26.50;99.90;;;29.63;50.50;101745.34;4880322;29;20141;-75
2023/06/22 04:52:20;;;;;;;15.38;10.48;;;28.40;99.90;;;29.96;49.61;101739.91;4863072;29;19981;-75
2023/06/22 04:54:55;;;;;;;24.80;12.73;;;28.90;99.90;;;30.50;47.95;101740.03;4876878;29;20029;-76
2023/06/22 04:57:21;;;;;;;23.23;13.57;;;29.60;99.90;;;31.53;46.62;101755.09;4860785;29;20131;-75
2023/06/22 04:59:47;;;;;;;20.42;11.80;;;30.40;99.90;;;32.20;45.39;101772.44;4864509;29;20402;-75
2023/06/22 05:02:13;;;;;;;20.02;13.20;;;30.80;99.80;;;32.44;44.37;101763.09;4872836;29;20083;-76
2023/06/22 05:04:41;;;;;;;26.48;13.25;;;31.20;98.70;;;33.06;44.11;101767.16;4857120;29;20032;-76
2023/06/22 05:07:07;;;;;;;18.83;12.40;;;31.70;99.10;;;33.49;42.44;101773.44;4852432;29;20032;-75
2023/06/22 05:09:35;;;;;;;21.83;13.60;;;32.10;97.90;;;33.91;42.34;101781.75;4858131;29;20043;-75
2023/06/22 05:12:02;;;;;;;21.90;12.75;;;32.40;97.50;;;33.93;42.18;101774.16;4869965;29;20040;-76
2023/06/22 05:14:30;;;;;;;25.80;13.50;;;32.50;96.80;;;33.67;42.23;101767.53;4866670;29;20037;-76
2023/06/22 05:16:58;;;;;;;20.65;12.95;;;32.10;96.30;;;32.15;44.35;101763.97;4857538;29;22177;-75
2023/06/22 05:19:25;;;;;;;20.88;13.55;;;31.40;97.10;;;31.22;46.03;101753.28;4874833;29;20055;-75
2023/06/22 05:21:51;;;;;;;21.17;12.30;;;30.80;97.90;;;30.71;46.87;101743.97;4873331;29;20040;-76
2023/06/22 05:24:17;;;;;;;17.10;12.05;;;30.40;98.40;;;30.97;46.73;101751.78;4876977;29;20402;-76
2023/06/22 05:26:42;;;;;;;17.65;10.98;;;30.50;99.10;;;31.89;45.20;101766.09;4874989;29;20095;-76
2023/06/22 05:29:08;;;;;;;15.07;11.70;;;30.80;98.60;;;32.35;45.10;101775.97;4861265;29;20031;-76
2023/06/22 05:31:34;;;;;;;16.75;12.40;;;31.30;98.60;;;33.21;43.22;101765.22;4875314;29;20048;-76
2023/06/22 05:34:02;;;;;;;18.48;10.68;;;31.70;98.00;;;33.25;43.22;101771.97;4855052;29;20499;-76
2023/06/22 05:36:28;;;;;;;16.63;10.70;;;32.00;97.50;;;33.43;42.29;101773.38;4864655;29;20033;-76
2023/06/22 05:38:56;;;;;;;22.20;11.13;;;31.90;97.30;;;32.37;44.36;101773.06;4868219;29;20075;-75
2023/06/22 05:41:22;;;;;;;20.40;12.77;;;31.50;97.20;;;31.31;46.01;101762.22;4863987;29;20029;-74
2023/06/22 05:43:53;;;;;;;22.38;12.48;;;30.90;97.70;;;30.46;47.53;101747.69;4864292;29;20043;-75
2023/06/22 05:46:22;;;;;;;16.63;12.02;;;30.30;98.30;;;29.83;49.01;101748.59;4867670;29;20036;-75
2023/06/22 05:48:48;;;;;;;17.60;12.20;;;29.70;99.00;;;29.44;50.33;101736.56;4880982;29;20525;-75
2023/06/22 05:51:14;;;;;;;17.73;11.10;;;29.30;99.40;;;29.17;50.96;101721.50;4837179;29;20052;-75
2023/06/22 05:53:39;;;;;;;19.02;12.13;;;29.40;99.90;;;30.42;49.24;101740.06;4866722;29;20494;-75
2023/06/22 05:56:06;;;;;;;14.70;10.85;;;29.90;99.90;;;31.88;46.27;101752.69;4887537;29;20035;-75
2023/06/22 05:58:39;;;;;;;15.52;10.00;;;30.90;98.60;;;33.19;43.33;101761.84;4865541;29;20048;-75
2023/06/22 06:01:05;;;;;;;17.88;10.40;;;31.90;97.40;;;34.43;41.43;101776.75;4866546;29;20554;-75
2023/06/22 06:03:30;;;;;;;19.83;11.18;;;32.10;95.50;;;33.21;43.24;101769.84;4866259;29;20052;-75
2023/06/22 06:05:57;;;;;;;17.15;10.27;;;32.50;95.00;;;33.68;42.00;101782.00;4869962;29;20545;-75
2023/06/22 06:08:23;;;;;;;19.38;10.70;;;32.70;95.80;;;34.05;41.71;101786.22;4873371;29;20176;-75
2023/06/22 06:10:53;;;;;;;23.45;10.30;;;33.10;94.80;;;34.19;41.57;101783.59;4875748;29;20036;-75
2023/06/22 06:13:19;;;;;;;19.90;10.38;;;33.60;94.30;;;34.77;40.16;101797.72;4868005;29;20075;-75
2023/06/22 06:15:46;;;;;;;14.68;10.38;;;33.80;93.00;;;34.72;40.43;101800.25;4858838;29;20044;-75
2023/06/22 06:18:12;;;;;;;15.05;10.20;;;34.10;92.80;;;35.01;39.64;101811.88;4869921;29;20501;-76
2023/06/22 06:20:37;;;;;;;21.77;10.85;;;34.10;93.50;;;34.82;40.17;101794.41;4867386;29;20043;-75
2023/06/22 06:23:03;;;;;;;19.25;11.18;;;34.30;92.90;;;35.07;39.60;101797.38;4874227;29;20044;-75
2023/06/22 06:25:31;;;;;;;21.27;11.18;;;34.50;93.30;;;35.54;38.92;101818.28;4873417;29;20117;-75
2023/06/22 06:27:57;;;;;;;17.75;10.95;;;35.00;92.00;;;36.09;37.86;101822.63;4867352;29;20044;-76
2023/06/22 06:30:23;;;;;;;14.55;9.68;;;35.10;91.40;;;35.21;38.91;101814.69;4887879;29;20051;-75
2023/06/22 06:32:50;;;;;;;20.90;10.68;;;34.60;91.40;;;33.73;40.82;101800.53;4864249;29;20036;-75
2023/06/22 06:35:17;;;;;;;16.90;10.38;;;33.80;92.10;;;33.29;42.03;101781.47;4872874;29;20045;-76
2023/06/22 06:37:48;;;;;;;17.88;9.60;;;33.20;92.70;;;32.77;42.40;101770.84;4853775;29;20568;-75
2023/06/22 06:40:15;;;;;;;15.88;9.10;;;32.40;92.50;;;32.10;43.71;101771.91;4871676;29;20032;-75
2023/06/22 06:42:48;;;;;;;15.85;8.50;;;32.60;93.90;;;33.29;42.68;101775.16;4857218;29;20035;-75
2023/06/22 06:45:22;;;;;;;14.25;9.18;;;32.60;93.70;;;32.81;42.34;101770.28;4886688;29;20092;-75
2023/06/22 06:47:48;;;;;;;17.98;8.80;;;32.20;93.80;;;32.04;44.11;101762.59;4880017;29;20055;-75
2023/06/22 06:50:15;;;;;;;15.45;8.27;;;32.60;92.90;;;33.07;42.46;101777.91;4868004;29;24224;-75
2023/06/22 06:52:41;;;;;;;16.02;7.75;;;33.60;93.20;;;34.70;40.06;101789.50;4864424;29;20037;-76
2023/06/22 06:55:11;;;;;;;12.77;8.30;;;34.60;91.30;;;35.81;38.18;101806.47;4858044;29;20614;-75
2023/06/22 06:57:39;;;;;;;11.27;7.70;;;35.50;90.30;;;36.66;36.20;101815.53;4861078;29;20585;-75
2023/06/22 07:00:13;;;;;;;13.07;7.10;;;36.30;90.10;;;37.39;35.45;101822.47;4881598;29;20048;-75
2023/06/22 07:02:41;;;;;;;12.15;6.35;;;36.00;85.70;;;35.36;37.72;101801.66;4856667;29;20434;-75
2023/06/22 07:05:08;;;;;;;11.77;6.82;;;34.90;86.60;;;33.30;39.99;101780.44;4878766;29;20544;-78
2023/06/22 07:07:34;;;;;;;10.20;5.78;;;34.40;90.70;;;33.54;41.30;101780.19;4886914;29;20115;-76
2023/06/22 07:10:00;;;;;;;14.93;5.72;;;34.40;90.00;;;34.15;39.62;101779.56;4889665;29;20034;-75
2023/06/22 07:12:26;;;;;;;9.40;5.97;;;34.40;90.40;;;34.09;39.65;101784.78;4863872;29;20044;-73
2023/06/22 07:14:53;;;;;;;15.88;6.10;;;34.90;88.60;;;34.89;38.19;101793.34;4867200;29;20033;-74
2023/06/22 07:17:19;;;;;;;8.82;6.20;;;35.40;89.90;;;35.84;36.92;101804.16;4888665;29;20041;-73
2023/06/22 07:19:45;;;;;;;9.50;5.65;;;35.80;86.60;;;36.34;35.58;101814.59;4864128;29;20041;-74
2023/06/22 07:22:11;;;;;;;11.23;5.50;;;36.10;85.10;;;36.62;35.34;101819.78;4857802;29;20039;-74
2023/06/22 07:24:37;;;;;;;9.95;5.57;;;36.40;85.80;;;36.75;34.90;101822.44;4864276;29;20036;-74
2023/06/22 07:27:06;;;;;;;11.35;6.13;;;36.60;86.30;;;36.97;35.26;101829.50;4872208;29;20055;-74
2023/06/22 07:29:33;;;;;;;13.15;7.07;;;36.70;84.50;;;37.05;35.16;101832.00;4872267;29;20051;-74
2023/06/22 07:32:00;;;;;;;12.15;6.38;;;36.50;85.50;;;36.49;35.66;101817.91;4865857;29;20025;-74
2023/06/22 07:34:26;;;;;;;13.32;6.25;;;36.30;85.70;;;36.22;35.65;101822.66;4857621;29;20051;-74
2023/06/22 07:36:52;;;;;;;12.80;5.10;;;36.40;84.90;;;36.52;35.72;101816.63;4872244;29;20045;-75
2023/06/22 07:39:18;;;;;;;8.90;5.20;;;36.70;85.00;;;37.05;34.42;101827.34;4858749;29;20420;-74
2023/06/22 07:41:43;;;;;;;9.45;5.40;;;37.00;83.80;;;37.33;34.79;101821.44;4870870;29;20072;-74
2023/06/22 07:44:09;;;;;;;16.33;5.15;;;37.10;83.50;;;37.39;34.95;101822.47;4872119;29;20037;-74
2023/06/22 07:46:35;;;;;;;24.65;5.88;;;37.10;82.70;;;37.28;34.64;101820.44;4873698;29;20044;-74
2023/06/22 07:49:02;;;;;;;7.70;4.13;;;36.60;79.90;;;35.90;35.08;101810.69;4874781;29;20028;-73
2023/06/22 07:51:28;;;;;;;6.28;3.45;;;36.60;82.10;;;36.21;35.35;101814.63;4853603;29;20112;-74
2023/06/22 07:53:54;;;;;;;14.80;3.97;;;36.60;82.40;;;36.53;34.42;101818.31;4889234;29;20053;-74
2023/06/22 07:56:21;;;;;;;9.60;4.00;;;36.70;82.50;;;36.98;33.96;101814.69;4854500;29;20051;-74
2023/06/22 07:58:47;;;;;;;4.82;2.80;;;36.70;78.60;;;36.66;33.49;101814.69;4875072;29;20041;-73
2023/06/22 08:01:16;;;;;;;7.93;3.63;;;36.50;78.00;;;36.46;33.69;101812.88;4863743;29;20045;-73
2023/06/22 08:03:43;;;;;;;7.95;3.60;;;36.50;80.00;;;36.61;33.54;101811.75;4869641;29;20515;-74
2023/06/22 08:06:09;;;;;;;8.60;3.67;;;35.90;78.60;;;35.30;34.82;101786.06;4873796;29;20056;-74
2023/06/22 08:08:38;;;;;;;7.53;3.80;;;35.30;81.90;;;34.24;37.88;101764.72;4857518;29;20095;-74
2023/06/22 08:11:05;;;;;;;8.25;3.67;;;34.50;82.40;;;33.29;38.05;101732.34;4865331;29;20040;-73
2023/06/22 08:13:30;;;;;;;6.05;2.75;;;34.30;82.00;;;33.73;36.68;101749.47;4871772;29;20040;-75
2023/06/22 08:15:56;;;;;;;7.20;2.70;;;34.20;82.40;;;33.73;37.33;101738.53;4856944;29;20039;-74
2023/06/22 08:18:22;;;;;;;8.68;2.70;;;33.90;83.30;;;33.53;37.69;101735.66;4874575;29;20716;-73
2023/06/22 08:20:48;;;;;;;7.43;2.75;;;33.90;84.50;;;33.87;36.13;101739.47;4871666;29;20068;-73
2023/06/22 08:23:13;;;;;;;5.25;2.75;;;34.10;83.30;;;33.90;36.44;101734.44;4874889;29;20136;-74
2023/06/22 08:25:39;;;;;;;3.58;2.60;;;33.80;82.60;;;33.82;35.91;101741.97;4872777;29;20676;-73
2023/06/22 08:28:05;;;;;;;3.00;2.00;;;33.70;81.60;;;33.52;36.15;101736.69;4874742;29;20032;-75
2023/06/22 08:30:31;;;;;;;13.65;2.78;;;33.50;80.40;;;32.95;36.62;101724.03;4879301;29;20036;-74
2023/06/22 08:32:57;;;;;;;8.07;3.03;;;33.20;82.60;;;32.87;37.40;101727.72;4863423;29;20044;-74
2023/06/22 08:35:23;;;;;;;4.80;2.25;;;33.00;81.30;;;32.66;37.66;101723.13;4890375;29;20049;-74
2023/06/22 08:37:52;;;;;;;3.38;2.13;;;32.90;82.80;;;32.58;37.28;101715.91;4861559;29;20411;-73
2023/06/22 08:40:19;;;;;;;4.32;2.20;;;32.90;83.60;;;32.61;37.66;101725.56;4870166;29;20067;-74
2023/06/22 08:42:47;;;;;;;3.05;2.05;;;33.00;82.70;;;32.63;37.00;101723.50;4845752;29;20040;-75
2023/06/22 08:45:13;;;;;;;7.93;2.28;;;32.90;79.30;;;32.27;37.07;101716.16;4858122;29;20045;-74
2023/06/22 08:47:43;;;;;;;6.80;2.22;;;32.70;82.30;;;32.20;38.19;101718.78;4873632;29;20048;-75
2023/06/22 08:50:10;;;;;;;4.38;2.30;;;32.70;83.50;;;32.29;38.11;101716.81;4896648;29;20105;-73
2023/06/22 08:52:41;;;;;;;4.28;2.33;;;32.50;82.20;;;32.08;38.18;101723.03;4881677;29;20029;-74
2023/06/22 08:55:09;;;;;;;11.32;2.20;;;32.40;82.60;;;31.87;38.45;101710.16;4878207;29;20044;-73
2023/06/22 08:57:37;;;;;;;4.18;2.10;;;32.30;82.30;;;31.77;38.25;101715.03;4869039;29;20057;-74
2023/06/22 09:00:16;;;;;;;11.60;2.40;;;32.10;82.50;;;31.60;37.88;101706.19;4874261;29;20041;-74
2023/06/22 09:02:47;;;;;;;3.45;2.45;;;31.80;81.80;;;30.95;38.74;101694.03;4876952;29;20049;-74
2023/06/22 09:05:13;;;;;;;6.18;2.35;;;31.40;82.00;;;30.59;39.68;101684.59;4874109;29;20649;-74
2023/06/22 09:07:40;;;;;;;5.47;2.00;;;31.20;85.60;;;30.53;40.22;101684.47;4872089;29;20040;-75
2023/06/22 09:10:07;;;;;;;6.03;2.33;;;31.10;84.60;;;30.49;40.39;101686.69;4876477;29;20033;-75
2023/06/22 09:12:37;;;;;;;3.72;2.05;;;31.00;84.80;;;30.51;40.11;101681.09;4891017;29;20052;-74
2023/06/22 09:15:04;;;;;;;5.07;2.20;;;31.10;85.30;;;30.68;39.85;101682.66;4874602;29;20036;-73
2023/06/22 09:17:30;;;;;;;5.75;2.33;;;31.10;85.90;;;30.79;40.26;101693.09;4860040;29;20229;-74
2023/06/22 09:19:56;;;;;;;3.00;2.03;;;31.10;82.80;;;30.62;39.20;101691.53;4870453;29;20037;-75
2023/06/22 09:22:23;;;;;;;5.32;2.00;;;31.00;84.70;;;30.56;40.00;101684.09;4878070;29;20044;-74
2023/06/22 09:24:49;;;;;;;4.30;2.22;;;30.90;85.30;;;30.32;40.62;101685.09;4875220;29;20051;-73
2023/06/22 09:27:15;;;;;;;5.10;2.50;;;30.80;88.20;;;30.04;42.11;101672.84;4878841;29;20524;-74
2023/06/22 09:29:44;;;;;;;9.63;2.17;;;30.80;87.70;;;30.29;41.91;101670.00;4875925;29;20045;-74
2023/06/22 09:32:10;;;;;;;4.70;2.17;;;30.80;87.50;;;30.29;42.02;101663.72;4877619;29;20045;-73
2023/06/22 09:34:39;;;;;;;3.63;2.30;;;30.60;87.60;;;29.96;42.82;101650.31;4872390;29;20043;-74
2023/06/22 09:37:08;;;;;;;9.77;2.10;;;30.60;87.40;;;30.12;43.07;101639.34;4872196;29;20037;-74
2023/06/22 09:39:38;;;;;;;4.95;2.45;;;30.70;86.30;;;30.09;41.71;101649.69;4892661;29;20040;-74
2023/06/22 09:42:06;;;;;;;5.53;2.60;;;30.70;86.20;;;30.16;41.98;101650.69;4877563;29;20040;-74
2023/06/22 09:44:38;;;;;;;5.88;2.75;;;30.60;88.80;;;30.14;42.47;101641.88;4877447;29;20541;-73
2023/06/22 09:47:09;;;;;;;7.90;2.00;;;30.70;88.10;;;30.37;41.91;101645.50;4866832;29;20049;-74
2023/06/22 09:49:35;;;;;;;5.88;2.58;;;30.80;90.00;;;30.18;42.40;101644.06;4859726;29;20040;-75
2023/06/22 09:52:04;;;;;;;5.40;2.55;;;30.60;89.00;;;29.97;43.31;101639.25;4875799;29;20037;-74
2023/06/22 09:54:38;;;;;;;6.40;2.40;;;30.60;88.00;;;30.21;42.39;101646.41;4877071;29;20561;-73
2023/06/22 09:57:05;;;;;;;5.50;2.45;;;30.20;86.20;;;29.28;43.12;101632.69;4878345;29;20048;-74
2023/06/22 09:59:31;;;;;;;4.95;2.80;;;30.00;88.90;;;28.99;43.68;101629.47;4881769;29;20560;-75
2023/06/22 10:01:59;;;;;;;7.35;2.50;;;30.10;91.00;;;29.54;44.20;101641.41;4867642;29;20037;-74
2023/06/22 10:04:34;;;;;;;9.45;2.60;;;30.20;86.80;;;29.76;42.07;101644.44;4876882;29;20037;-74
2023/06/22 10:07:04;;;;;;;3.85;2.17;;;30.40;90.40;;;30.23;43.27;101646.25;4892627;29;20037;-74
2023/06/22 10:09:33;;;;;;;3.83;2.35;;;30.70;90.30;;;30.51;42.07;101651.19;4875360;29;20450;-73